Time;durP1;ratioP1;P1;durP2;ratioP2;P2;SDS_P1;SDS_P2;PMS_P1;PMS_P2;Temp;Humidity;BMP_temperature;BMP_pressure;BME280_temperature;BME280_humidity;BME280_pressure;Samples;Min_cycle;Max_cycle;Signal;HPM_P1;HPM_P2
2024/01/21 00:01:38;;;;;;;4.37;3.30;;;;;;;0.36;63.33;95898.97;5052154;28;20218;-71
2024/01/21 00:04:06;;;;;;;4.30;3.53;;;;;;;0.46;63.54;95907.16;5052536;28;20225;-72
2024/01/21 00:06:31;;;;;;;4.30;3.30;;;;;;;0.49;63.97;95912.19;5054260;28;20217;-72
2024/01/21 00:08:57;;;;;;;3.57;2.97;;;;;;;0.44;64.81;95917.56;5045178;28;20185;-72
2024/01/21 00:11:22;;;;;;;4.80;3.53;;;;;;;0.43;64.86;95914.16;5054748;28;20197;-72
2024/01/21 00:13:48;;;;;;;4.13;3.73;;;;;;;0.42;63.41;95914.22;5053514;28;20221;-71
2024/01/21 00:16:13;;;;;;;4.40;3.57;;;;;;;0.30;63.74;95919.94;5052946;28;20221;-72
2024/01/21 00:18:39;;;;;;;5.43;4.03;;;;;;;0.35;63.91;95925.75;5053749;28;20235;-70
2024/01/21 00:21:04;;;;;;;5.47;4.17;;;;;;;0.55;63.26;95920.53;5053737;28;20217;-74
2024/01/21 00:23:30;;;;;;;4.53;3.67;;;;;;;0.48;64.58;95916.50;5071161;28;20220;-73
2024/01/21 00:25:55;;;;;;;5.17;3.93;;;;;;;0.50;65.12;95911.28;5051524;28;20238;-73
2024/01/21 00:28:21;;;;;;;5.03;4.23;;;;;;;0.42;65.10;95920.22;5052757;28;20312;-75
2024/01/21 00:30:46;;;;;;;4.10;3.50;;;;;;;0.33;64.79;95922.41;5054190;28;20213;-74
2024/01/21 00:33:12;;;;;;;4.13;3.50;;;;;;;0.58;64.23;95924.72;5052283;28;20221;-74
2024/01/21 00:35:37;;;;;;;4.40;3.60;;;;;;;0.51;62.78;95923.31;5053051;28;20273;-74
2024/01/21 00:38:03;;;;;;;3.53;3.23;;;;;;;0.29;62.99;95929.44;5053402;28;20228;-74
2024/01/21 00:40:29;;;;;;;4.60;3.20;;;;;;;0.13;62.80;95928.41;5049557;28;20255;-74
2024/01/21 00:42:58;;;;;;;3.83;2.80;;;;;;;0.33;61.15;95931.00;5053770;28;20217;-73
2024/01/21 00:45:24;;;;;;;3.30;3.00;;;;;;;-0.17;63.46;95935.75;5051213;28;20217;-74
2024/01/21 00:47:50;;;;;;;2.47;2.27;;;;;;;-0.05;63.74;95933.47;5052008;28;20276;-73
2024/01/21 00:50:15;;;;;;;3.30;2.63;;;;;;;0.06;64.20;95924.44;5054049;28;20251;-73
2024/01/21 00:52:40;;;;;;;4.47;3.13;;;;;;;0.03;64.06;95929.72;5050123;28;20275;-73
2024/01/21 00:55:06;;;;;;;3.17;2.80;;;;;;;-0.07;64.85;95929.28;5048238;28;20229;-73
2024/01/21 00:57:32;;;;;;;3.83;2.83;;;;;;;-0.02;64.07;95930.75;5052994;28;20237;-73
2024/01/21 00:59:57;;;;;;;3.30;2.90;;;;;;;0.22;62.85;95939.22;5052444;28;20194;-73
2024/01/21 01:02:22;;;;;;;3.20;2.90;;;;;;;-0.16;64.15;95924.47;5036827;28;20198;-72
2024/01/21 01:04:48;;;;;;;3.37;3.07;;;;;;;0.22;62.57;95944.38;5050641;28;20344;-72
2024/01/21 01:07:14;;;;;;;3.10;2.80;;;;;;;-0.01;63.82;95931.59;5052591;28;20225;-72
2024/01/21 01:09:41;;;;;;;3.13;2.80;;;;;;;0.19;63.39;95941.09;5051616;28;20225;-72
2024/01/21 01:12:06;;;;;;;2.70;2.30;;;;;;;0.37;61.48;95932.50;5044169;28;20221;-73
2024/01/21 01:14:32;;;;;;;2.57;1.90;;;;;;;0.29;62.46;95932.00;5053041;28;20185;-74
2024/01/21 01:16:58;;;;;;;2.27;2.07;;;;;;;0.15;62.94;95934.38;5051998;28;20224;-74
2024/01/21 01:19:23;;;;;;;2.47;2.20;;;;;;;0.18;62.77;95940.25;5047693;28;20251;-74
2024/01/21 01:21:48;;;;;;;2.73;1.93;;;;;;;0.13;64.17;95934.41;5049761;28;20245;-74
2024/01/21 01:24:14;;;;;;;2.37;2.07;;;;;;;0.25;64.52;95937.41;5052616;28;20275;-75
2024/01/21 01:26:39;;;;;;;2.67;2.20;;;;;;;0.28;64.16;95945.88;5048856;28;20276;-74
2024/01/21 01:29:05;;;;;;;2.00;1.70;;;;;;;0.29;64.40;95931.19;5052670;28;20222;-74
2024/01/21 01:31:30;;;;;;;2.07;1.87;;;;;;;0.42;63.67;95925.38;5051751;28;20228;-75
2024/01/21 01:33:56;;;;;;;2.10;1.90;;;;;;;0.46;63.58;95935.63;5052420;28;20221;-74
2024/01/21 01:36:21;;;;;;;2.30;1.80;;;;;;;0.44;63.40;95933.94;5048985;28;20214;-74
2024/01/21 01:38:47;;;;;;;1.80;1.70;;;;;;;0.37;63.75;95926.50;5049485;28;20189;-72
2024/01/21 01:41:12;;;;;;;2.10;1.90;;;;;;;0.31;64.73;95932.78;5066151;28;20201;-74
2024/01/21 01:43:37;;;;;;;2.40;2.20;;;;;;;0.33;64.36;95936.16;5049704;28;20248;-74
2024/01/21 01:46:06;;;;;;;2.77;2.37;;;;;;;0.39;64.28;95935.88;5048196;28;20308;-74
2024/01/21 01:48:32;;;;;;;2.23;2.00;;;;;;;0.25;63.79;95937.41;5050820;28;20225;-74
2024/01/21 01:50:59;;;;;;;4.33;1.70;;;;;;;0.35;63.61;95938.69;5051269;28;20259;-73
2024/01/21 01:53:26;;;;;;;2.10;1.90;;;;;;;0.38;63.30;95946.31;5069112;28;20185;-72
2024/01/21 01:55:52;;;;;;;2.10;1.90;;;;;;;0.49;62.46;95948.44;5051382;28;20218;-73
2024/01/21 01:58:18;;;;;;;3.50;1.87;;;;;;;0.35;63.47;95938.69;5050749;28;20248;-74
2024/01/21 02:00:45;;;;;;;2.87;1.90;;;;;;;0.41;63.96;95948.75;5050395;28;20221;-73
2024/01/21 02:03:12;;;;;;;2.43;2.10;;;;;;;0.24;64.00;95946.06;5050781;28;20236;-71
2024/01/21 02:05:37;;;;;;;2.23;2.03;;;;;;;0.26;63.79;95944.25;5045468;28;20196;-71
2024/01/21 02:08:03;;;;;;;2.10;1.90;;;;;;;0.30;64.00;95944.06;5053076;28;20209;-72
2024/01/21 02:10:30;;;;;;;3.47;2.23;;;;;;;0.42;64.41;95947.84;5051602;28;20244;-72
2024/01/21 02:12:56;;;;;;;3.17;2.50;;;;;;;0.37;64.54;95948.03;5051284;28;20275;-71
2024/01/21 02:15:21;;;;;;;4.17;2.47;;;;;;;0.32;63.89;95946.56;5068048;28;20229;-71
2024/01/21 02:17:48;;;;;;;3.20;2.70;;;;;;;0.31;64.37;95953.50;5048070;28;20238;-72
2024/01/21 02:20:13;;;;;;;3.00;2.70;;;;;;;0.22;64.67;95949.56;5049715;28;20264;-72
2024/01/21 02:22:40;;;;;;;3.03;2.33;;;;;;;0.27;64.18;95946.78;5049457;28;20343;-73
2024/01/21 02:25:07;;;;;;;3.07;2.57;;;;;;;0.24;64.43;95952.06;5051509;28;20240;-72
2024/01/21 02:27:33;;;;;;;3.97;2.90;;;;;;;0.15;65.13;95955.91;5049906;28;20228;-72
2024/01/21 02:29:58;;;;;;;3.43;3.13;;;;;;;0.09;64.88;95953.59;5051000;28;20189;-72
2024/01/21 02:32:23;;;;;;;3.23;2.90;;;;;;;0.11;64.26;95954.38;5051429;28;20192;-73
2024/01/21 02:34:49;;;;;;;2.43;2.23;;;;;;;0.11;64.70;95962.13;5049046;28;20226;-73
2024/01/21 02:37:14;;;;;;;2.07;1.90;;;;;;;0.19;64.48;95962.63;5051071;28;20330;-74
2024/01/21 02:39:40;;;;;;;2.30;1.97;;;;;;;0.04;64.54;95965.03;5045979;28;20218;-73
2024/01/21 02:42:06;;;;;;;2.93;2.30;;;;;;;0.04;64.42;95967.63;5050868;28;20228;-73
2024/01/21 02:44:31;;;;;;;2.53;2.30;;;;;;;0.11;63.66;95967.28;5050448;28;20250;-72
2024/01/21 02:46:56;;;;;;;2.43;2.00;;;;;;;-0.11;64.17;95976.84;5050540;28;20221;-72
2024/01/21 02:49:24;;;;;;;3.37;2.40;;;;;;;-0.05;64.21;95974.03;5050988;28;20221;-72
2024/01/21 02:51:49;;;;;;;2.50;2.30;;;;;;;-0.04;64.45;95971.34;5050716;28;20228;-72
2024/01/21 02:54:15;;;;;;;2.20;2.00;;;;;;;-0.02;64.63;95966.13;5051555;28;20304;-72
2024/01/21 02:56:40;;;;;;;2.27;2.00;;;;;;;0.07;64.48;95970.06;5052019;28;20204;-73
2024/01/21 02:59:06;;;;;;;2.57;2.20;;;;;;;-0.14;64.18;95967.47;5049703;28;20244;-72
2024/01/21 03:01:33;;;;;;;2.47;2.27;;;;;;;-0.04;63.99;95971.34;5052594;28;20213;-71
2024/01/21 03:03:59;;;;;;;2.90;2.50;;;;;;;0.12;63.53;95987.06;5048223;28;20217;-70
2024/01/21 03:06:24;;;;;;;3.10;2.70;;;;;;;-0.14;64.44;95975.22;5049538;28;20313;-70
2024/01/21 03:08:50;;;;;;;3.77;2.50;;;;;;;0.00;63.07;95977.25;5050898;28;20196;-71
2024/01/21 03:11:15;;;;;;;4.57;3.27;;;;;;;-0.09;63.30;95978.47;5047452;28;20200;-72
2024/01/21 03:13:41;;;;;;;3.90;3.20;;;;;;;-0.16;63.06;95977.06;5049262;28;20228;-75
2024/01/21 03:16:06;;;;;;;4.60;3.30;;;;;;;-0.18;62.80;95984.03;5049476;28;20217;-75
2024/01/21 03:18:31;;;;;;;5.67;3.53;;;;;;;-0.39;63.74;95983.13;5051217;28;20230;-75
2024/01/21 03:20:57;;;;;;;5.30;4.57;;;;;;;-0.27;63.26;95990.41;5050956;28;20231;-72
2024/01/21 03:23:22;;;;;;;5.13;3.93;;;;;;;-0.49;63.64;95992.16;5051618;28;20185;-72
2024/01/21 03:25:48;;;;;;;6.57;4.97;;;;;;;-0.47;63.55;95990.38;5050616;28;20221;-72
2024/01/21 03:28:13;;;;;;;5.93;4.87;;;;;;;-0.43;63.74;95985.91;5048465;28;20224;-73
2024/01/21 03:30:42;;;;;;;5.87;4.57;;;;;;;-0.47;63.73;95987.78;5050412;28;20222;-72
2024/01/21 03:33:07;;;;;;;6.47;4.70;;;;;;;-0.56;65.14;96001.03;5044184;28;20328;-74
2024/01/21 03:35:33;;;;;;;5.90;4.20;;;;;;;-0.75;64.78;95994.03;5054774;28;20223;-73
2024/01/21 03:37:58;;;;;;;6.03;4.37;;;;;;;-0.92;65.27;95986.09;5047553;28;20319;-73
2024/01/21 03:40:24;;;;;;;6.07;4.83;;;;;;;-0.81;65.29;96001.16;5053257;28;20222;-73
2024/01/21 03:42:49;;;;;;;5.83;4.80;;;;;;;-0.81;65.55;95996.84;5053952;28;20213;-74
2024/01/21 03:45:15;;;;;;;7.07;4.87;;;;;;;-0.71;64.96;96005.91;5049111;28;20240;-74
2024/01/21 03:47:40;;;;;;;7.20;5.20;;;;;;;-0.75;64.15;96004.38;5055320;28;20189;-74
2024/01/21 03:50:06;;;;;;;5.50;4.83;;;;;;;-0.81;63.97;96006.31;5051576;28;20225;-74
2024/01/21 03:52:31;;;;;;;5.27;4.77;;;;;;;-0.83;63.72;96008.13;5070798;28;20221;-74
2024/01/21 03:54:57;;;;;;;5.57;4.73;;;;;;;-0.98;64.05;96005.22;5052888;28;20225;-74
2024/01/21 03:57:22;;;;;;;6.97;4.63;;;;;;;-1.05;64.30;96006.34;5042019;28;20241;-75
2024/01/21 03:59:48;;;;;;;7.50;4.90;;;;;;;-1.03;64.73;96011.47;5049185;28;20234;-72
2024/01/21 04:02:13;;;;;;;7.27;4.73;;;;;;;-1.09;64.16;96012.53;5051288;28;20182;-72
2024/01/21 04:04:39;;;;;;;7.43;5.60;;;;;;;-1.00;64.18;96008.78;5054579;28;20308;-73
2024/01/21 04:07:04;;;;;;;6.43;4.93;;;;;;;-0.90;64.00;96018.69;5052074;28;20225;-74
2024/01/21 04:09:31;;;;;;;6.63;5.60;;;;;;;-0.99;64.31;96028.50;5054076;28;20375;-73
2024/01/21 04:11:56;;;;;;;6.80;5.37;;;;;;;-1.08;64.51;96027.13;5048221;28;20197;-73
2024/01/21 04:14:21;;;;;;;6.77;4.80;;;;;;;-1.10;63.75;96036.66;5050891;28;20186;-73
2024/01/21 04:16:47;;;;;;;7.33;5.60;;;;;;;-1.21;64.13;96028.47;5052748;28;20221;-73
2024/01/21 04:19:13;;;;;;;7.27;5.30;;;;;;;-1.21;64.21;96039.63;5052440;28;20225;-73
2024/01/21 04:21:38;;;;;;;6.23;5.00;;;;;;;-1.22;64.71;96042.28;5054404;28;20222;-74
2024/01/21 04:24:04;;;;;;;5.93;5.13;;;;;;;-1.14;63.96;96043.69;5053550;28;20279;-74
2024/01/21 04:26:31;;;;;;;5.67;4.87;;;;;;;-1.31;64.11;96046.03;5035998;28;20186;-74
2024/01/21 04:28:56;;;;;;;5.53;4.13;;;;;;;-1.35;63.73;96053.03;5049523;28;20271;-74
2024/01/21 04:31:22;;;;;;;4.57;3.73;;;;;;;-1.22;63.84;96050.84;5050122;28;20222;-73
2024/01/21 04:33:47;;;;;;;4.47;3.77;;;;;;;-1.33;64.00;96058.16;5051286;28;20225;-74
2024/01/21 04:36:19;;;;;;;4.70;3.83;;;;;;;-1.23;63.67;96056.06;5052371;28;20221;-74
2024/01/21 04:38:46;;;;;;;5.63;3.73;;;;;;;-1.24;63.52;96056.97;5053698;28;20189;-74
2024/01/21 04:41:15;;;;;;;4.03;3.27;;;;;;;-1.34;63.24;96067.63;5070115;28;20189;-74
2024/01/21 04:43:41;;;;;;;3.87;2.97;;;;;;;-1.28;63.07;96065.69;5053823;28;20217;-75
2024/01/21 04:46:07;;;;;;;4.33;2.73;;;;;;;-1.38;63.10;96073.78;5052576;28;20225;-74
2024/01/21 04:48:33;;;;;;;2.90;2.57;;;;;;;-1.38;62.90;96075.53;5068427;28;20275;-74
2024/01/21 04:50:59;;;;;;;2.97;2.63;;;;;;;-1.36;62.86;96076.31;5050560;28;20472;-74
2024/01/21 04:53:24;;;;;;;2.90;2.50;;;;;;;-1.22;62.53;96076.66;5052615;28;20186;-74
2024/01/21 04:55:49;;;;;;;3.07;2.67;;;;;;;-1.32;62.96;96077.88;5053924;28;20224;-74
2024/01/21 04:58:15;;;;;;;3.57;2.80;;;;;;;-1.37;62.75;96080.59;5051258;28;20245;-74
2024/01/21 05:00:40;;;;;;;3.53;2.67;;;;;;;-1.49;62.77;96080.22;5052999;28;20217;-73
2024/01/21 05:03:06;;;;;;;3.10;2.80;;;;;;;-1.26;62.36;96087.13;5052107;28;20233;-72
2024/01/21 05:05:31;;;;;;;3.10;2.67;;;;;;;-1.37;62.98;96082.34;5053612;28;20239;-73
2024/01/21 05:07:57;;;;;;;3.37;3.07;;;;;;;-1.51;62.32;96085.41;5052377;28;20228;-72
2024/01/21 05:10:24;;;;;;;3.73;2.90;;;;;;;-1.50;62.88;96087.09;5051442;28;20229;-73
2024/01/21 05:12:49;;;;;;;3.93;3.47;;;;;;;-1.44;62.31;96094.63;5052834;28;20215;-74
2024/01/21 05:15:15;;;;;;;3.50;3.20;;;;;;;-1.61;62.66;96100.34;5051040;28;20221;-75
2024/01/21 05:17:40;;;;;;;5.17;3.33;;;;;;;-1.55;62.44;96101.91;5052681;28;20259;-76
2024/01/21 05:20:08;;;;;;;3.30;2.97;;;;;;;-1.60;62.42;96094.31;5052682;28;20457;-76
2024/01/21 05:22:34;;;;;;;4.40;3.23;;;;;;;-1.62;62.48;96106.41;5047855;28;20233;-75
2024/01/21 05:24:59;;;;;;;3.83;2.73;;;;;;;-1.87;62.58;96101.25;5052424;28;20221;-71
2024/01/21 05:27:24;;;;;;;3.53;2.67;;;;;;;-1.63;62.01;96106.44;5051696;28;20289;-71
2024/01/21 05:29:50;;;;;;;4.10;3.03;;;;;;;-1.82;62.25;96113.94;5069018;28;20193;-71
2024/01/21 05:32:15;;;;;;;3.97;2.90;;;;;;;-1.93;62.49;96109.16;5052094;28;20193;-71
2024/01/21 05:34:41;;;;;;;3.20;2.60;;;;;;;-1.74;62.29;96119.69;5052387;28;20240;-71
2024/01/21 05:37:06;;;;;;;3.60;2.67;;;;;;;-1.86;62.23;96114.97;5051327;28;20347;-72
2024/01/21 05:39:32;;;;;;;2.77;2.57;;;;;;;-1.80;62.09;96119.91;5051256;28;20299;-71
2024/01/21 05:42:04;;;;;;;4.00;2.87;;;;;;;-1.84;61.89;96129.50;5052331;28;20190;-71
2024/01/21 05:44:30;;;;;;;3.20;2.90;;;;;;;-1.79;61.94;96121.63;5050133;28;20253;-71
2024/01/21 05:46:56;;;;;;;3.20;2.90;;;;;;;-1.99;61.96;96122.25;5052329;28;20209;-71
2024/01/21 05:49:22;;;;;;;2.80;2.50;;;;;;;-1.83;61.83;96126.00;5050213;28;20300;-72
2024/01/21 05:51:47;;;;;;;4.17;3.40;;;;;;;-1.92;62.14;96126.31;5068755;28;20221;-72
2024/01/21 05:54:13;;;;;;;3.57;3.03;;;;;;;-1.84;61.75;96132.06;5068177;28;20284;-72
2024/01/21 05:56:38;;;;;;;3.57;3.07;;;;;;;-1.80;61.60;96133.63;5052515;28;20188;-70
2024/01/21 05:59:04;;;;;;;4.30;3.40;;;;;;;-1.82;61.33;96145.75;5050270;28;20283;-72
2024/01/21 06:01:29;;;;;;;3.80;3.30;;;;;;;-1.90;61.89;96150.28;5052118;28;20221;-72
2024/01/21 06:03:55;;;;;;;4.17;3.27;;;;;;;-1.77;61.84;96141.28;5051209;28;20217;-71
2024/01/21 06:06:20;;;;;;;4.47;3.20;;;;;;;-1.86;61.95;96146.72;5049394;28;20279;-72
2024/01/21 06:08:46;;;;;;;4.00;3.60;;;;;;;-1.82;62.07;96150.06;5048402;28;20178;-73
2024/01/21 06:11:11;;;;;;;5.27;3.40;;;;;;;-1.83;61.55;96149.22;5051265;28;20185;-73
2024/01/21 06:13:37;;;;;;;4.20;3.57;;;;;;;-1.82;61.52;96150.06;5051418;28;20279;-73
2024/01/21 06:16:03;;;;;;;3.47;3.17;;;;;;;-1.83;61.85;96163.84;5051245;28;20224;-72
2024/01/21 06:18:28;;;;;;;4.20;3.70;;;;;;;-1.90;61.84;96147.72;5051235;28;20233;-75
2024/01/21 06:20:54;;;;;;;4.07;3.63;;;;;;;-2.00;63.01;96148.91;5050470;28;20272;-74
2024/01/21 06:23:19;;;;;;;4.03;3.63;;;;;;;-1.88;62.32;96151.09;5051700;28;20288;-74
2024/01/21 06:25:45;;;;;;;4.00;3.60;;;;;;;-1.73;62.19;96149.78;5049939;28;20213;-73
2024/01/21 06:28:10;;;;;;;4.47;3.67;;;;;;;-1.79;61.68;96155.97;5051721;28;20228;-73
2024/01/21 06:30:36;;;;;;;4.70;4.20;;;;;;;-1.80;62.20;96156.00;5051146;28;20483;-73
2024/01/21 06:33:01;;;;;;;4.30;3.57;;;;;;;-1.72;61.85;96148.88;5051346;28;20305;-72
2024/01/21 06:35:27;;;;;;;4.20;3.80;;;;;;;-1.81;61.90;96157.75;5051330;28;20192;-72
2024/01/21 06:37:53;;;;;;;4.43;3.83;;;;;;;-1.71;61.66;96152.28;5051333;28;20300;-71
2024/01/21 06:40:18;;;;;;;5.20;4.07;;;;;;;-1.53;61.56;96156.84;5065714;28;20221;-72
2024/01/21 06:42:44;;;;;;;4.57;4.17;;;;;;;-1.61;61.15;96149.34;5051380;28;20280;-73
2024/01/21 06:45:13;;;;;;;4.13;3.73;;;;;;;-1.52;61.16;96150.81;5052147;28;20232;-77
2024/01/21 06:47:39;;;;;;;6.57;4.50;;;;;;;-1.43;61.00;96168.53;5055081;28;20232;-77
2024/01/21 06:50:05;;;;;;;5.43;4.27;;;;;;;-1.36;60.64;96174.34;5050785;28;20275;-80
2024/01/21 06:52:30;;;;;;;4.40;4.00;;;;;;;-1.28;60.99;96177.53;5051610;28;20233;-71
2024/01/21 06:54:56;;;;;;;4.20;3.80;;;;;;;-1.45;60.98;96175.47;5047224;28;20232;-70
2024/01/21 06:57:22;;;;;;;6.10;4.13;;;;;;;-1.40;61.14;96181.34;5050311;28;20252;-71
2024/01/21 06:59:48;;;;;;;4.93;4.37;;;;;;;-1.29;60.76;96180.97;5066365;28;20200;-70
2024/01/21 07:02:14;;;;;;;4.97;4.13;;;;;;;-1.31;60.83;96189.66;5052499;28;20189;-72
2024/01/21 07:04:39;;;;;;;4.63;4.07;;;;;;;-1.31;61.31;96187.97;5052132;28;20221;-71
2024/01/21 07:07:05;;;;;;;4.17;3.77;;;;;;;-1.21;60.60;96183.31;5049961;28;20225;-73
2024/01/21 07:09:30;;;;;;;4.90;4.40;;;;;;;-1.15;60.65;96194.28;5047089;28;20299;-71
2024/01/21 07:11:56;;;;;;;3.90;3.17;;;;;;;-1.10;60.31;96199.25;5045972;28;20277;-71
2024/01/21 07:14:22;;;;;;;4.13;3.47;;;;;;;-1.03;60.36;96189.59;5051369;28;20182;-71
2024/01/21 07:16:48;;;;;;;4.73;3.57;;;;;;;-1.00;60.50;96200.66;5055810;28;20236;-72
2024/01/21 07:19:13;;;;;;;3.93;3.53;;;;;;;-0.95;59.73;96196.16;5054546;28;20242;-72
2024/01/21 07:21:40;;;;;;;4.07;3.67;;;;;;;-0.79;59.52;96205.97;5053071;28;20232;-73
2024/01/21 07:24:06;;;;;;;5.03;4.17;;;;;;;-0.69;59.41;96197.84;5055318;28;20237;-75
2024/01/21 07:26:31;;;;;;;5.10;4.10;;;;;;;-0.79;59.38;96209.38;5055813;28;20213;-74
2024/01/21 07:28:57;;;;;;;4.80;4.27;;;;;;;-0.82;59.57;96206.09;5055043;28;20236;-76
2024/01/21 07:31:22;;;;;;;4.13;3.53;;;;;;;-0.69;59.58;96217.66;5057979;28;20228;-74
2024/01/21 07:33:48;;;;;;;5.77;3.93;;;;;;;-0.72;59.29;96207.44;5055527;28;20279;-75
2024/01/21 07:36:13;;;;;;;5.77;4.13;;;;;;;-0.49;58.87;96210.03;5051479;28;20312;-78
2024/01/21 07:38:38;;;;;;;4.30;3.80;;;;;;;-0.29;57.97;96222.25;5052685;28;20216;-74
2024/01/21 07:41:04;;;;;;;4.03;3.40;;;;;;;-0.34;57.59;96223.31;5071650;28;20221;-75
2024/01/21 07:43:30;;;;;;;4.50;3.83;;;;;;;-0.38;57.50;96227.72;5055473;28;20244;-76
2024/01/21 07:45:55;;;;;;;5.50;3.93;;;;;;;-0.39;57.34;96220.88;5052337;28;20300;-71
2024/01/21 07:48:21;;;;;;;5.40;4.37;;;;;;;-0.50;57.89;96217.84;5045383;28;20213;-70
2024/01/21 07:50:47;;;;;;;5.63;4.83;;;;;;;-0.54;57.99;96227.44;5051496;28;20201;-73
2024/01/21 07:53:12;;;;;;;6.57;4.97;;;;;;;-0.40;57.96;96220.94;5052808;28;20209;-74
2024/01/21 07:55:38;;;;;;;6.53;5.20;;;;;;;-0.56;58.14;96226.66;5054565;28;20249;-75
2024/01/21 07:58:04;;;;;;;6.30;5.00;;;;;;;-0.56;58.10;96218.91;5052229;28;20241;-75
2024/01/21 08:00:29;;;;;;;6.30;4.93;;;;;;;-0.28;57.15;96229.06;5036002;28;20224;-74
2024/01/21 08:02:55;;;;;;;5.30;4.63;;;;;;;-0.30;57.12;96224.88;5052614;28;20227;-73
2024/01/21 08:05:20;;;;;;;6.17;5.40;;;;;;;-0.11;57.09;96231.03;5054380;28;20182;-74
2024/01/21 08:07:46;;;;;;;6.50;5.50;;;;;;;-0.26;56.60;96226.44;5050894;28;20269;-73
2024/01/21 08:10:11;;;;;;;6.67;5.33;;;;;;;-0.26;56.45;96237.63;5051529;28;20256;-74
2024/01/21 08:12:55;;;;;;;5.70;4.70;;;;;;;-0.31;56.49;96241.28;5053785;28;20248;-72
2024/01/21 08:15:21;;;;;;;4.90;3.77;;;;;;;-0.14;55.80;96227.72;5069612;28;20304;-72
2024/01/21 08:17:46;;;;;;;5.77;4.20;;;;;;;-0.04;55.71;96239.41;5052727;28;20296;-73
2024/01/21 08:20:12;;;;;;;5.60;4.70;;;;;;;-0.13;55.78;96235.44;5052463;28;20315;-73
2024/01/21 08:22:37;;;;;;;6.23;3.80;;;;;;;0.02;55.54;96240.94;5054518;28;20234;-75
2024/01/21 08:25:04;;;;;;;6.57;4.70;;;;;;;0.07;55.57;96246.78;5052136;28;20229;-72
2024/01/21 08:27:31;;;;;;;5.10;4.30;;;;;;;-0.19;56.05;96237.38;5053485;28;20284;-73
2024/01/21 08:29:56;;;;;;;6.07;5.07;;;;;;;-0.08;55.75;96246.44;5049804;28;20264;-72
2024/01/21 08:32:22;;;;;;;6.47;4.67;;;;;;;-0.03;56.14;96241.09;5053679;28;20324;-73
2024/01/21 08:34:47;;;;;;;6.00;5.07;;;;;;;0.16;56.24;96249.00;5051757;28;20253;-73
2024/01/21 08:37:13;;;;;;;5.60;5.03;;;;;;;0.16;55.44;96249.00;5052646;28;20232;-73
2024/01/21 08:39:38;;;;;;;6.43;4.60;;;;;;;0.19;55.33;96254.91;5053045;28;20231;-73
2024/01/21 08:42:04;;;;;;;6.97;5.67;;;;;;;0.48;55.77;96246.91;5050291;28;20307;-75
2024/01/21 08:44:30;;;;;;;8.07;5.40;;;;;;;0.66;54.99;96247.03;5050356;28;20178;-75
2024/01/21 08:46:56;;;;;;;8.10;6.07;;;;;;;0.51;54.88;96255.41;5066267;28;20218;-73
2024/01/21 08:49:22;;;;;;;5.87;5.00;;;;;;;0.35;55.99;96256.91;5049785;28;20228;-74
2024/01/21 08:51:48;;;;;;;7.67;5.60;;;;;;;0.32;56.31;96260.47;5051153;28;20225;-74
2024/01/21 08:54:13;;;;;;;6.03;4.47;;;;;;;0.27;55.95;96251.16;5047949;28;20229;-72
2024/01/21 08:56:39;;;;;;;6.10;5.40;;;;;;;0.51;55.57;96249.38;5047038;28;20194;-72
2024/01/21 08:59:04;;;;;;;6.77;5.33;;;;;;;0.76;55.22;96255.28;5049695;28;20315;-72
2024/01/21 09:01:30;;;;;;;7.47;5.63;;;;;;;0.61;55.34;96248.94;5050781;28;20217;-72
2024/01/21 09:03:55;;;;;;;7.40;5.30;;;;;;;0.70;54.43;96250.34;5048272;28;20218;-71
2024/01/21 09:06:21;;;;;;;5.90;4.87;;;;;;;0.79;54.08;96251.72;5064981;28;20232;-71
2024/01/21 09:08:51;;;;;;;7.20;5.50;;;;;;;0.65;54.71;96257.44;5049998;28;20177;-79
2024/01/21 09:11:17;;;;;;;7.33;6.00;;;;;;;0.85;54.31;96243.69;5051023;28;20220;-73
2024/01/21 09:13:43;;;;;;;5.97;4.80;;;;;;;1.02;54.34;96249.03;5049788;28;20218;-73
2024/01/21 09:16:09;;;;;;;6.43;4.80;;;;;;;1.04;53.40;96247.22;5049313;28;20220;-76
2024/01/21 09:18:35;;;;;;;6.30;5.00;;;;;;;1.10;53.97;96243.53;5049865;28;20209;-76
2024/01/21 09:21:02;;;;;;;5.60;4.87;;;;;;;1.19;54.10;96252.66;5051033;28;20249;-77
2024/01/21 09:23:28;;;;;;;5.17;4.60;;;;;;;1.23;53.35;96246.44;5047228;28;20208;-77
2024/01/21 09:25:53;;;;;;;5.80;4.63;;;;;;;1.12;52.92;96238.28;5066723;28;20214;-79
2024/01/21 09:28:19;;;;;;;6.30;4.83;;;;;;;1.09;52.68;96245.25;5049654;28;20287;-75
2024/01/21 09:30:44;;;;;;;6.63;5.30;;;;;;;1.05;53.39;96242.88;5050557;28;20224;-76
2024/01/21 09:33:09;;;;;;;4.73;4.30;;;;;;;1.09;53.21;96252.19;5048827;28;20228;-72
2024/01/21 09:35:35;;;;;;;6.90;5.00;;;;;;;1.27;52.69;96240.22;5051236;28;20200;-74
2024/01/21 09:38:00;;;;;;;6.33;5.40;;;;;;;1.31;52.23;96232.25;5045269;28;20221;-80
2024/01/21 09:40:26;;;;;;;6.80;5.10;;;;;;;1.28;53.68;96237.59;5050551;28;20225;-76
2024/01/21 09:42:52;;;;;;;7.03;5.90;;;;;;;1.45;53.60;96241.19;5053340;28;20241;-78
2024/01/21 09:45:21;;;;;;;5.20;4.70;;;;;;;1.35;52.47;96234.72;5052349;28;20247;-79
2024/01/21 09:47:49;;;;;;;5.93;4.73;;;;;;;1.38;52.54;96250.97;5051349;28;20181;-78
2024/01/21 09:50:15;;;;;;;6.53;5.10;;;;;;;1.58;52.93;96234.56;5052634;28;20189;-79
2024/01/21 09:52:40;;;;;;;6.87;4.53;;;;;;;1.90;51.79;96221.94;5050037;28;20221;-78
2024/01/21 09:55:06;;;;;;;7.53;5.10;;;;;;;1.60;53.15;96232.72;5054223;28;20232;-78
2024/01/21 09:57:33;;;;;;;5.57;4.60;;;;;;;1.69;54.36;96211.59;5053661;28;20237;-80
2024/01/21 09:59:59;;;;;;;5.53;4.47;;;;;;;2.08;51.74;96212.44;5054596;28;20178;-78
2024/01/21 10:02:25;;;;;;;5.70;4.40;;;;;;;1.89;51.85;96222.81;5053132;28;20174;-79
2024/01/21 10:04:51;;;;;;;6.20;5.00;;;;;;;1.87;51.30;96209.94;5053462;28;20213;-79
2024/01/21 10:07:17;;;;;;;6.07;4.50;;;;;;;1.95;50.38;96206.97;5055499;28;20215;-79
2024/01/21 10:09:52;;;;;;;6.57;5.00;;;;;;;1.92;51.56;96222.66;5054179;28;20214;-78
2024/01/21 10:12:18;;;;;;;6.40;4.87;;;;;;;1.92;50.51;96212.28;5052389;28;20237;-85
2024/01/21 10:14:43;;;;;;;5.87;4.80;;;;;;;2.02;50.46;96208.38;5052339;28;20185;-80
2024/01/21 10:17:09;;;;;;;7.17;5.20;;;;;;;1.93;49.35;96194.09;5054464;28;20267;-79
2024/01/21 10:19:34;;;;;;;6.80;4.53;;;;;;;2.05;50.27;96207.41;5053705;28;20217;-82
2024/01/21 10:22:16;;;;;;;5.47;4.50;;;;;;;2.20;49.62;96201.50;5053126;28;20240;-78
2024/01/21 10:24:43;;;;;;;5.67;4.90;;;;;;;2.28;50.21;96204.56;5054637;28;20224;-82
2024/01/21 10:27:10;;;;;;;6.57;5.20;;;;;;;2.02;51.43;96191.97;5047849;28;20217;-79
2024/01/21 10:29:43;;;;;;;5.73;5.07;;;;;;;2.27;51.14;96202.88;5050547;28;20196;-80
2024/01/21 10:32:18;;;;;;;6.20;5.30;;;;;;;2.62;50.26;96197.78;5046685;28;20255;-78
2024/01/21 10:34:45;;;;;;;6.17;5.20;;;;;;;2.41;51.29;96204.84;5050632;28;20213;-77
2024/01/21 10:37:15;;;;;;;5.60;4.97;;;;;;;2.47;52.31;96203.72;5034177;28;20217;-80
2024/01/21 10:39:44;;;;;;;5.53;4.90;;;;;;;2.64;52.74;96198.53;5049802;28;20216;-83
2024/01/21 10:42:11;;;;;;;5.47;4.67;;;;;;;2.93;50.30;96197.09;5048548;28;20229;-79
2024/01/21 10:44:38;;;;;;;7.53;5.57;;;;;;;2.87;49.86;96194.81;5045004;28;20235;-76
2024/01/21 10:47:04;;;;;;;5.40;4.90;;;;;;;2.74;51.24;96188.53;5052497;28;20223;-75
2024/01/21 10:49:31;;;;;;;6.50;5.47;;;;;;;2.83;49.99;96182.88;5069328;28;20216;-73
2024/01/21 10:51:57;;;;;;;8.73;5.70;;;;;;;2.91;49.54;96185.94;5052638;28;20205;-77
2024/01/21 10:54:25;;;;;;;6.27;5.40;;;;;;;2.98;51.06;96178.69;5052082;28;20228;-76
2024/01/21 10:56:50;;;;;;;5.40;4.90;;;;;;;3.27;50.20;96191.03;5052838;28;20248;-76
2024/01/21 10:59:16;;;;;;;6.07;5.20;;;;;;;3.21;49.09;96185.34;5050291;28;20278;-75
2024/01/21 11:01:43;;;;;;;5.40;4.73;;;;;;;3.11;50.31;96181.50;5067011;28;20221;-78
2024/01/21 11:04:12;;;;;;;5.43;4.93;;;;;;;3.14;50.82;96181.34;5050820;28;20220;-74
2024/01/21 11:06:41;;;;;;;4.80;4.27;;;;;;;3.21;50.26;96182.72;5068276;28;20212;-76
2024/01/21 11:09:07;;;;;;;5.87;4.37;;;;;;;3.36;47.43;96173.28;5048893;28;20275;-74
2024/01/21 11:11:41;;;;;;;6.83;5.03;;;;;;;3.01;48.76;96178.53;5050619;28;20234;-74
2024/01/21 11:14:30;;;;;;;5.63;5.07;;;;;;;2.74;50.63;96173.78;5051029;28;20223;-73
2024/01/21 11:16:59;;;;;;;7.07;5.47;;;;;;;2.95;51.02;96189.25;5062209;28;20217;-73
2024/01/21 11:19:24;;;;;;;5.60;4.83;;;;;;;2.97;49.89;96184.81;5049776;28;20217;-78
2024/01/21 11:21:55;;;;;;;5.37;4.87;;;;;;;3.24;49.01;96183.41;5052766;28;20265;-77
2024/01/21 11:24:29;;;;;;;6.47;5.07;;;;;;;3.15;48.43;96185.63;5083036;28;20266;-77
2024/01/21 11:26:56;;;;;;;5.70;4.87;;;;;;;3.22;48.48;96181.81;5069915;28;20180;-75
2024/01/21 11:29:22;;;;;;;5.80;4.87;;;;;;;3.35;47.36;96182.03;5082685;28;20202;-76
2024/01/21 11:31:51;;;;;;;6.00;5.17;;;;;;;3.38;48.45;96185.28;5068567;28;20217;-76